Nissho Maru — JD2955 — position and weather

sailwx.info

Track history (hours):
 
Tides and Currents Weather Stations Pressure Air Temp Water Temp Dewpoint Dewpoint Depression Visibility Wind Speed Wind Dir Waves Ship Positions

Nissho Maru

Last reported at 2018-Jun-19 19:54 UTC. Time now 2018-Jun-20 17:27 UTC.
Position N 35°32' E 140°01'.

Length 99 m; draft 5.4 m.

Type: Tanker. MMSI: 431001006.

Date/timePositionNaut miles runAvg speedWind from/ knotsBaromVisibWave heightAir tempDewpointWater temp
2018-Jun-19 19:54N 35°32' E 140°01'2 4.3
2018-Jun-19 19:30N 35°31' E 140°02'0 0.0
2018-Jun-19 18:16N 35°31' E 140°02'0 0.0
2018-Jun-19 16:46N 35°31' E 140°02'0 0.1
2018-Jun-19 16:16N 35°31' E 140°03'0 0.0
2018-Jun-19 13:58N 35°31' E 140°02'0 0.0
2018-Jun-19 11:22N 35°31' E 140°03'0 0.1
2018-Jun-19 10:52N 35°31' E 140°02'0 0.0
2018-Jun-19 10:28N 35°31' E 140°02'0 0.0
2018-Jun-19 09:40N 35°31' E 140°02'0 0.0
2018-Jun-19 09:22N 35°31' E 140°02'0 0.1
2018-Jun-19 08:58N 35°31' E 140°03'1 0.3
2018-Jun-19 04:30N 35°32' E 140°01'1 0.1
2018-Jun-18 04:37N 35°30' E 140°01'1 6.0
2018-Jun-18 04:24N 35°31' E 140°00'4 0.2
2018-Jun-17 06:30N 35°34' E 139°56'510.8
2018-Jun-17 06:00N 35°29' E 140°00'1 0.1
2018-Jun-17 00:00N 35°29' E 140°01'2 3.3
2018-Jun-16 23:21N 35°30' E 139°58'0 0.0
2018-Jun-16 23:00N 35°30' E 139°58'0 0.0
2018-Jun-16 22:30N 35°30' E 139°58'0 0.0
2018-Jun-16 21:57N 35°30' E 139°58'0 0.0
2018-Jun-16 21:30N 35°30' E 139°58'0 0.0
2018-Jun-16 20:57N 35°30' E 139°58'0 0.0
2018-Jun-16 20:24N 35°30' E 139°58'0 0.0
2018-Jun-16 20:00N 35°30' E 139°58'0 0.0
2018-Jun-16 19:21N 35°30' E 139°58'0 0.0
2018-Jun-16 18:33N 35°30' E 139°58'0 0.0
2018-Jun-16 18:15N 35°30' E 139°58'0 0.0
2018-Jun-16 18:00N 35°30' E 139°58'0 0.0
2018-Jun-16 17:30N 35°30' E 139°58'0 0.0
2018-Jun-16 17:00N 35°30' E 139°58'0 0.0
2018-Jun-16 16:30N 35°30' E 139°58'0 0.0
2018-Jun-16 16:00N 35°30' E 139°58'0 0.0
2018-Jun-16 15:30N 35°30' E 139°58'0 0.0
2018-Jun-16 15:00N 35°30' E 139°58'0 0.0
2018-Jun-16 14:30N 35°30' E 139°58'0 0.0
2018-Jun-16 14:00N 35°30' E 139°58'0 0.0
2018-Jun-16 13:24N 35°30' E 139°58'0 0.0
2018-Jun-16 13:00N 35°30' E 139°58'0 0.0
2018-Jun-16 12:27N 35°30' E 139°58'0 0.0
2018-Jun-16 12:00N 35°30' E 139°58'0 0.0
2018-Jun-16 11:24N 35°30' E 139°58'0 0.0
2018-Jun-16 11:00N 35°30' E 139°58'0 0.1
2018-Jun-16 10:24N 35°30' E 139°58'0 0.0
2018-Jun-16 05:37N 35°30' E 139°58'1 8.1
2018-Jun-16 05:29N 35°31' E 139°59'3 0.3
2018-Jun-15 19:08N 35°34' E 139°57'0 0.1
2018-Jun-15 17:14N 35°34' E 139°57'2 7.4
2018-Jun-15 17:00N 35°33' E 139°55'612.8
2018-Jun-15 16:30N 35°28' E 139°50'612.8
2018-Jun-15 16:00N 35°23' E 139°45'611.9
2018-Jun-15 15:30N 35°17' E 139°46'612.0
2018-Jun-15 15:00N 35°11' E 139°46'24612.3
2018-Jun-14 18:58N 33°47' E 135°05'715.0
2018-Jun-14 18:31N 33°53' E 135°01'714.6
2018-Jun-14 18:00N 34°00' E 134°59'714.5
2018-Jun-14 17:30N 34°08' E 134°59'815.2
2018-Jun-14 17:00N 34°15' E 134°58'714.5
2018-Jun-14 16:31N 34°22' E 134°60'714.4
2018-Jun-14 16:00N 34°29' E 135°02'713.6
2018-Jun-14 15:30N 34°36' E 135°02'913.1
2018-Jun-14 14:51N 34°34' E 134°52'512.6
2018-Jun-14 14:29N 34°32' E 134°47'613.0
2018-Jun-14 14:00N 34°30' E 134°40'713.6
2018-Jun-14 13:30N 34°27' E 134°32'713.9
2018-Jun-14 13:01N 34°25' E 134°25'8 0.3
2018-Jun-13 10:15N 34°24' E 134°15'416.3
2018-Jun-13 09:59N 34°25' E 134°20'715.6
2018-Jun-13 09:31N 34°27' E 134°29'815.5
2018-Jun-13 09:00N 34°30' E 134°38'815.8
2018-Jun-13 08:30N 34°34' E 134°46'1315.4
2018-Jun-13 07:39N 34°37' E 135°02'213.7
2018-Jun-13 07:30N 34°36' E 135°04'612.6
2018-Jun-13 07:00N 34°29' E 135°04'714.3
2018-Jun-13 06:31N 34°22' E 135°02'713.8
2018-Jun-13 06:00N 34°16' E 134°59'612.3
2018-Jun-13 05:30N 34°10' E 134°60'713.6
2018-Jun-13 05:00N 34°03' E 134°60'714.0
2018-Jun-13 04:31N 33°56' E 135°00'612.5
2018-Jun-13 04:00N 33°50' E 135°03'713.2
2018-Jun-13 03:28N 33°44' E 135°08'24312.3
2018-Jun-12 07:42N 35°09' E 139°44'413.5
2018-Jun-12 07:26N 35°12' E 139°46'512.1
2018-Jun-12 07:01N 35°17' E 139°45'613.0
2018-Jun-12 06:30N 35°24' E 139°43'714.0
2018-Jun-12 06:01N 35°28' E 139°49'813.9
2018-Jun-12 05:27N 35°32' E 139°57'0 0.0
2018-Jun-10 07:06N 35°33' E 139°56'110.4
2018-Jun-10 07:01N 35°32' E 139°57'3 0.3
2018-Jun-09 21:44N 35°32' E 140°01'  
Track history (hours):
 
Tides and Currents Weather Stations Pressure Air Temp Water Temp Dewpoint Dewpoint Depression Visibility Wind Speed Wind Dir Waves Ship Positions

Nissho Maru

Last reported at 2018-Jun-19 19:54 UTC. Time now 2018-Jun-20 17:27 UTC.
Position N 35°32' E 140°01'.

Length 99 m; draft 5.4 m.

Type: Tanker. MMSI: 431001006.

Date/timePositionNaut miles runAvg speedWind from/ knotsBaromVisibWave heightAir tempDewpointWater temp
2018-Jun-19 19:54N 35°32' E 140°01'2 4.3
2018-Jun-19 19:30N 35°31' E 140°02'0 0.0
2018-Jun-19 18:16N 35°31' E 140°02'0 0.0
2018-Jun-19 16:46N 35°31' E 140°02'0 0.1
2018-Jun-19 16:16N 35°31' E 140°03'0 0.0
2018-Jun-19 13:58N 35°31' E 140°02'0 0.0
2018-Jun-19 11:22N 35°31' E 140°03'0 0.1
2018-Jun-19 10:52N 35°31' E 140°02'0 0.0
2018-Jun-19 10:28N 35°31' E 140°02'0 0.0
2018-Jun-19 09:40N 35°31' E 140°02'0 0.0
2018-Jun-19 09:22N 35°31' E 140°02'0 0.1
2018-Jun-19 08:58N 35°31' E 140°03'1 0.3
2018-Jun-19 04:30N 35°32' E 140°01'1 0.1
2018-Jun-18 04:37N 35°30' E 140°01'1 6.0
2018-Jun-18 04:24N 35°31' E 140°00'4 0.2
2018-Jun-17 06:30N 35°34' E 139°56'510.8
2018-Jun-17 06:00N 35°29' E 140°00'1 0.1
2018-Jun-17 00:00N 35°29' E 140°01'2 3.3
2018-Jun-16 23:21N 35°30' E 139°58'0 0.0
2018-Jun-16 23:00N 35°30' E 139°58'0 0.0
2018-Jun-16 22:30N 35°30' E 139°58'0 0.0
2018-Jun-16 21:57N 35°30' E 139°58'0 0.0
2018-Jun-16 21:30N 35°30' E 139°58'0 0.0
2018-Jun-16 20:57N 35°30' E 139°58'0 0.0
2018-Jun-16 20:24N 35°30' E 139°58'0 0.0
2018-Jun-16 20:00N 35°30' E 139°58'0 0.0
2018-Jun-16 19:21N 35°30' E 139°58'0 0.0
2018-Jun-16 18:33N 35°30' E 139°58'0 0.0
2018-Jun-16 18:15N 35°30' E 139°58'0 0.0
2018-Jun-16 18:00N 35°30' E 139°58'0 0.0
2018-Jun-16 17:30N 35°30' E 139°58'0 0.0
2018-Jun-16 17:00N 35°30' E 139°58'0 0.0
2018-Jun-16 16:30N 35°30' E 139°58'0 0.0
2018-Jun-16 16:00N 35°30' E 139°58'0 0.0
2018-Jun-16 15:30N 35°30' E 139°58'0 0.0
2018-Jun-16 15:00N 35°30' E 139°58'0 0.0
2018-Jun-16 14:30N 35°30' E 139°58'0 0.0
2018-Jun-16 14:00N 35°30' E 139°58'0 0.0
2018-Jun-16 13:24N 35°30' E 139°58'0 0.0
2018-Jun-16 13:00N 35°30' E 139°58'0 0.0
2018-Jun-16 12:27N 35°30' E 139°58'0 0.0
2018-Jun-16 12:00N 35°30' E 139°58'0 0.0
2018-Jun-16 11:24N 35°30' E 139°58'0 0.0
2018-Jun-16 11:00N 35°30' E 139°58'0 0.1
2018-Jun-16 10:24N 35°30' E 139°58'0 0.0
2018-Jun-16 05:37N 35°30' E 139°58'1 8.1
2018-Jun-16 05:29N 35°31' E 139°59'3 0.3
2018-Jun-15 19:08N 35°34' E 139°57'0 0.1
2018-Jun-15 17:14N 35°34' E 139°57'2 7.4
2018-Jun-15 17:00N 35°33' E 139°55'612.8
2018-Jun-15 16:30N 35°28' E 139°50'612.8
2018-Jun-15 16:00N 35°23' E 139°45'611.9
2018-Jun-15 15:30N 35°17' E 139°46'612.0
2018-Jun-15 15:00N 35°11' E 139°46'24612.3
2018-Jun-14 18:58N 33°47' E 135°05'715.0
2018-Jun-14 18:31N 33°53' E 135°01'714.6
2018-Jun-14 18:00N 34°00' E 134°59'714.5
2018-Jun-14 17:30N 34°08' E 134°59'815.2
2018-Jun-14 17:00N 34°15' E 134°58'714.5
2018-Jun-14 16:31N 34°22' E 134°60'714.4
2018-Jun-14 16:00N 34°29' E 135°02'713.6
2018-Jun-14 15:30N 34°36' E 135°02'913.1
2018-Jun-14 14:51N 34°34' E 134°52'512.6
2018-Jun-14 14:29N 34°32' E 134°47'613.0
2018-Jun-14 14:00N 34°30' E 134°40'713.6
2018-Jun-14 13:30N 34°27' E 134°32'713.9
2018-Jun-14 13:01N 34°25' E 134°25'8 0.3
2018-Jun-13 10:15N 34°24' E 134°15'416.3
2018-Jun-13 09:59N 34°25' E 134°20'715.6
2018-Jun-13 09:31N 34°27' E 134°29'815.5
2018-Jun-13 09:00N 34°30' E 134°38'815.8
2018-Jun-13 08:30N 34°34' E 134°46'1315.4
2018-Jun-13 07:39N 34°37' E 135°02'213.7
2018-Jun-13 07:30N 34°36' E 135°04'612.6
2018-Jun-13 07:00N 34°29' E 135°04'714.3
2018-Jun-13 06:31N 34°22' E 135°02'713.8
2018-Jun-13 06:00N 34°16' E 134°59'612.3
2018-Jun-13 05:30N 34°10' E 134°60'713.6
2018-Jun-13 05:00N 34°03' E 134°60'714.0
2018-Jun-13 04:31N 33°56' E 135°00'612.5
2018-Jun-13 04:00N 33°50' E 135°03'713.2
2018-Jun-13 03:28N 33°44' E 135°08'24312.3
2018-Jun-12 07:42N 35°09' E 139°44'413.5
2018-Jun-12 07:26N 35°12' E 139°46'512.1
2018-Jun-12 07:01N 35°17' E 139°45'613.0
2018-Jun-12 06:30N 35°24' E 139°43'714.0
2018-Jun-12 06:01N 35°28' E 139°49'813.9
2018-Jun-12 05:27N 35°32' E 139°57'0 0.0
2018-Jun-10 07:06N 35°33' E 139°56'110.4
2018-Jun-10 07:01N 35°32' E 139°57'3 0.3
2018-Jun-09 21:44N 35°32' E 140°01'  

Dump ship's entire track history